sensor_id;sensor_type;location;lat;lon;timestamp;temperature;humidity
67817;DHT22;54614;47.576;7.524;2022-09-09T00:00:11;26.50;62.80
67817;DHT22;54614;47.576;7.524;2022-09-09T00:02:47;26.50;62.70
67817;DHT22;54614;47.576;7.524;2022-09-09T00:05:52;26.50;62.60
67817;DHT22;54614;47.576;7.524;2022-09-09T00:08:21;26.50;62.60
67817;DHT22;54614;47.576;7.524;2022-09-09T00:11:00;26.50;62.50
67817;DHT22;54614;47.576;7.524;2022-09-09T00:13:36;26.50;62.40
67817;DHT22;54614;47.576;7.524;2022-09-09T00:16:17;26.50;62.40
67817;DHT22;54614;47.576;7.524;2022-09-09T00:33:03;26.50;62.10
67817;DHT22;54614;47.576;7.524;2022-09-09T00:35:57;26.50;62.20
67817;DHT22;54614;47.576;7.524;2022-09-09T00:38:28;26.50;62.10
67817;DHT22;54614;47.576;7.524;2022-09-09T00:43:35;26.50;62.10
67817;DHT22;54614;47.576;7.524;2022-09-09T00:46:18;26.50;62.10
67817;DHT22;54614;47.576;7.524;2022-09-09T00:49:04;26.50;62.20
67817;DHT22;54614;47.576;7.524;2022-09-09T00:52:16;26.40;62.10
67817;DHT22;54614;47.576;7.524;2022-09-09T00:55:13;26.50;62.20
67817;DHT22;54614;47.576;7.524;2022-09-09T00:57:46;26.50;62.10
67817;DHT22;54614;47.576;7.524;2022-09-09T01:11:25;26.50;62.10
67817;DHT22;54614;47.576;7.524;2022-09-09T01:14:13;26.50;62.00
67817;DHT22;54614;47.576;7.524;2022-09-09T01:16:56;26.50;62.10
67817;DHT22;54614;47.576;7.524;2022-09-09T01:28:28;26.50;62.10
67817;DHT22;54614;47.576;7.524;2022-09-09T01:30:56;26.60;62.30
67817;DHT22;54614;47.576;7.524;2022-09-09T01:33:24;26.60;62.50
67817;DHT22;54614;47.576;7.524;2022-09-09T01:36:13;26.50;62.70
67817;DHT22;54614;47.576;7.524;2022-09-09T01:38:46;26.50;62.60
67817;DHT22;54614;47.576;7.524;2022-09-09T01:41:12;26.50;62.70
67817;DHT22;54614;47.576;7.524;2022-09-09T01:43:38;26.50;62.70
67817;DHT22;54614;47.576;7.524;2022-09-09T01:46:04;26.40;62.70
67817;DHT22;54614;47.576;7.524;2022-09-09T01:48:31;26.50;62.70
67817;DHT22;54614;47.576;7.524;2022-09-09T01:50:57;26.40;62.60
67817;DHT22;54614;47.576;7.524;2022-09-09T01:53:23;26.40;62.60
67817;DHT22;54614;47.576;7.524;2022-09-09T02:01:45;26.50;62.50
67817;DHT22;54614;47.576;7.524;2022-09-09T02:13:07;26.40;62.40
67817;DHT22;54614;47.576;7.524;2022-09-09T02:16:11;26.40;62.40
67817;DHT22;54614;47.576;7.524;2022-09-09T02:18:58;26.40;62.40
67817;DHT22;54614;47.576;7.524;2022-09-09T02:21:32;26.40;62.40
67817;DHT22;54614;47.576;7.524;2022-09-09T02:24:05;26.40;62.50
67817;DHT22;54614;47.576;7.524;2022-09-09T02:26:37;26.40;62.50
67817;DHT22;54614;47.576;7.524;2022-09-09T02:29:16;26.40;62.50
67817;DHT22;54614;47.576;7.524;2022-09-09T02:31:49;26.40;62.60
67817;DHT22;54614;47.576;7.524;2022-09-09T02:34:19;26.40;62.50
67817;DHT22;54614;47.576;7.524;2022-09-09T02:36:48;26.40;62.50
67817;DHT22;54614;47.576;7.524;2022-09-09T02:39:16;26.40;62.50
67817;DHT22;54614;47.576;7.524;2022-09-09T02:41:42;26.40;62.50
67817;DHT22;54614;47.576;7.524;2022-09-09T02:44:16;26.40;62.50
67817;DHT22;54614;47.576;7.524;2022-09-09T02:47:13;26.40;62.60
67817;DHT22;54614;47.576;7.524;2022-09-09T02:50:23;26.40;62.60
67817;DHT22;54614;47.576;7.524;2022-09-09T02:55:41;26.40;62.50
67817;DHT22;54614;47.576;7.524;2022-09-09T02:58:16;26.40;62.60
67817;DHT22;54614;47.576;7.524;2022-09-09T03:00:48;26.40;62.60
67817;DHT22;54614;47.576;7.524;2022-09-09T03:03:17;26.40;62.60
67817;DHT22;54614;47.576;7.524;2022-09-09T03:05:45;26.40;62.60
67817;DHT22;54614;47.576;7.524;2022-09-09T03:08:11;26.40;62.70
67817;DHT22;54614;47.576;7.524;2022-09-09T03:10:38;26.40;62.60
67817;DHT22;54614;47.576;7.524;2022-09-09T03:13:05;26.40;62.60
67817;DHT22;54614;47.576;7.524;2022-09-09T03:15:32;26.40;62.60
67817;DHT22;54614;47.576;7.524;2022-09-09T03:17:59;26.40;62.60
67817;DHT22;54614;47.576;7.524;2022-09-09T03:20:26;26.40;62.60
67817;DHT22;54614;47.576;7.524;2022-09-09T03:22:54;26.40;62.60
67817;DHT22;54614;47.576;7.524;2022-09-09T03:25:22;26.40;62.70
67817;DHT22;54614;47.576;7.524;2022-09-09T03:27:52;26.40;62.70
67817;DHT22;54614;47.576;7.524;2022-09-09T03:30:27;26.40;62.70
67817;DHT22;54614;47.576;7.524;2022-09-09T03:32:54;26.40;62.80
67817;DHT22;54614;47.576;7.524;2022-09-09T03:35:20;26.30;62.60
67817;DHT22;54614;47.576;7.524;2022-09-09T03:37:46;26.40;62.70
67817;DHT22;54614;47.576;7.524;2022-09-09T03:40:13;26.40;62.60
67817;DHT22;54614;47.576;7.524;2022-09-09T03:42:40;26.40;62.80
67817;DHT22;54614;47.576;7.524;2022-09-09T03:45:07;26.40;62.70
67817;DHT22;54614;47.576;7.524;2022-09-09T03:47:35;26.40;62.70
67817;DHT22;54614;47.576;7.524;2022-09-09T03:50:02;26.40;62.70
67817;DHT22;54614;47.576;7.524;2022-09-09T03:52:35;26.40;62.80
67817;DHT22;54614;47.576;7.524;2022-09-09T03:55:02;26.40;62.90
67817;DHT22;54614;47.576;7.524;2022-09-09T03:57:28;26.50;63.00
67817;DHT22;54614;47.576;7.524;2022-09-09T03:59:55;26.50;63.20
67817;DHT22;54614;47.576;7.524;2022-09-09T04:02:21;26.40;63.00
67817;DHT22;54614;47.576;7.524;2022-09-09T04:04:47;26.40;63.30
67817;DHT22;54614;47.576;7.524;2022-09-09T04:07:13;26.40;63.20
67817;DHT22;54614;47.576;7.524;2022-09-09T04:09:39;26.40;63.00
67817;DHT22;54614;47.576;7.524;2022-09-09T04:12:05;26.40;63.00
67817;DHT22;54614;47.576;7.524;2022-09-09T04:14:32;26.40;63.00
67817;DHT22;54614;47.576;7.524;2022-09-09T04:16:58;26.40;63.00
67817;DHT22;54614;47.576;7.524;2022-09-09T04:19:25;26.40;63.00
67817;DHT22;54614;47.576;7.524;2022-09-09T04:21:51;26.40;62.90
67817;DHT22;54614;47.576;7.524;2022-09-09T04:24:17;26.40;62.90
67817;DHT22;54614;47.576;7.524;2022-09-09T04:26:43;26.40;63.00
67817;DHT22;54614;47.576;7.524;2022-09-09T04:29:10;26.40;63.10
67817;DHT22;54614;47.576;7.524;2022-09-09T04:31:36;26.30;63.00
67817;DHT22;54614;47.576;7.524;2022-09-09T04:34:08;26.30;63.10
67817;DHT22;54614;47.576;7.524;2022-09-09T04:36:34;26.40;63.00
67817;DHT22;54614;47.576;7.524;2022-09-09T04:39:01;26.30;63.00
67817;DHT22;54614;47.576;7.524;2022-09-09T04:41:27;26.60;62.30
67817;DHT22;54614;47.576;7.524;2022-09-09T04:43:53;26.50;62.40
67817;DHT22;54614;47.576;7.524;2022-09-09T04:46:23;26.70;62.00
67817;DHT22;54614;47.576;7.524;2022-09-09T04:48:49;26.80;61.90
67817;DHT22;54614;47.576;7.524;2022-09-09T04:51:17;26.80;61.80
67817;DHT22;54614;47.576;7.524;2022-09-09T04:53:44;26.80;61.90
67817;DHT22;54614;47.576;7.524;2022-09-09T04:56:15;26.60;62.10
67817;DHT22;54614;47.576;7.524;2022-09-09T04:58:42;26.50;62.80
67817;DHT22;54614;47.576;7.524;2022-09-09T05:01:17;26.40;63.00
67817;DHT22;54614;47.576;7.524;2022-09-09T05:03:44;26.30;63.10
67817;DHT22;54614;47.576;7.524;2022-09-09T05:06:13;26.20;62.90
67817;DHT22;54614;47.576;7.524;2022-09-09T05:08:42;26.20;63.10
67817;DHT22;54614;47.576;7.524;2022-09-09T05:13:50;26.20;62.90
67817;DHT22;54614;47.576;7.524;2022-09-09T05:16:16;26.10;63.00
67817;DHT22;54614;47.576;7.524;2022-09-09T05:18:43;26.20;63.10
67817;DHT22;54614;47.576;7.524;2022-09-09T05:21:10;26.10;62.80
67817;DHT22;54614;47.576;7.524;2022-09-09T05:23:38;26.10;63.00
67817;DHT22;54614;47.576;7.524;2022-09-09T05:26:05;26.10;63.00
67817;DHT22;54614;47.576;7.524;2022-09-09T05:28:34;26.10;63.00
67817;DHT22;54614;47.576;7.524;2022-09-09T05:31:04;26.10;62.90
67817;DHT22;54614;47.576;7.524;2022-09-09T05:33:34;26.10;62.90
67817;DHT22;54614;47.576;7.524;2022-09-09T05:36:02;26.00;62.50
67817;DHT22;54614;47.576;7.524;2022-09-09T05:38:33;25.90;63.40
67817;DHT22;54614;47.576;7.524;2022-09-09T05:41:00;25.80;62.80
67817;DHT22;54614;47.576;7.524;2022-09-09T05:43:28;25.70;63.60
67817;DHT22;54614;47.576;7.524;2022-09-09T05:46:10;25.80;63.90
67817;DHT22;54614;47.576;7.524;2022-09-09T05:48:40;25.80;63.40
67817;DHT22;54614;47.576;7.524;2022-09-09T05:51:13;25.80;62.70
67817;DHT22;54614;47.576;7.524;2022-09-09T05:53:44;25.80;63.20
67817;DHT22;54614;47.576;7.524;2022-09-09T05:56:13;25.70;63.00
67817;DHT22;54614;47.576;7.524;2022-09-09T05:58:43;25.70;63.00
67817;DHT22;54614;47.576;7.524;2022-09-09T06:01:19;25.80;62.70
67817;DHT22;54614;47.576;7.524;2022-09-09T06:03:48;25.70;62.60
67817;DHT22;54614;47.576;7.524;2022-09-09T06:06:20;25.70;62.60
67817;DHT22;54614;47.576;7.524;2022-09-09T06:08:50;25.60;62.60
67817;DHT22;54614;47.576;7.524;2022-09-09T06:11:20;25.60;62.80
67817;DHT22;54614;47.576;7.524;2022-09-09T06:13:48;25.60;62.60
67817;DHT22;54614;47.576;7.524;2022-09-09T06:16:18;25.60;62.60
67817;DHT22;54614;47.576;7.524;2022-09-09T06:18:45;25.50;62.40
67817;DHT22;54614;47.576;7.524;2022-09-09T06:21:17;25.50;62.60
67817;DHT22;54614;47.576;7.524;2022-09-09T06:23:45;25.50;62.80
67817;DHT22;54614;47.576;7.524;2022-09-09T06:26:23;25.50;63.00
67817;DHT22;54614;47.576;7.524;2022-09-09T06:28:52;25.40;63.00
67817;DHT22;54614;47.576;7.524;2022-09-09T06:31:22;25.40;63.30
67817;DHT22;54614;47.576;7.524;2022-09-09T06:33:51;25.40;63.40
67817;DHT22;54614;47.576;7.524;2022-09-09T06:36:21;25.40;63.30
67817;DHT22;54614;47.576;7.524;2022-09-09T06:38:49;25.40;63.30
67817;DHT22;54614;47.576;7.524;2022-09-09T06:41:17;25.40;63.40
67817;DHT22;54614;47.576;7.524;2022-09-09T06:43:45;25.30;63.40
67817;DHT22;54614;47.576;7.524;2022-09-09T06:46:14;25.30;63.30
67817;DHT22;54614;47.576;7.524;2022-09-09T06:48:43;25.30;63.40
67817;DHT22;54614;47.576;7.524;2022-09-09T06:51:18;25.30;63.40
67817;DHT22;54614;47.576;7.524;2022-09-09T06:53:46;25.20;62.80
67817;DHT22;54614;47.576;7.524;2022-09-09T06:58:56;25.30;62.60
67817;DHT22;54614;47.576;7.524;2022-09-09T07:01:31;25.20;62.70
67817;DHT22;54614;47.576;7.524;2022-09-09T07:04:10;25.20;62.60
67817;DHT22;54614;47.576;7.524;2022-09-09T07:06:42;25.20;62.60
67817;DHT22;54614;47.576;7.524;2022-09-09T07:09:15;25.20;62.60
67817;DHT22;54614;47.576;7.524;2022-09-09T07:11:49;25.20;63.10
67817;DHT22;54614;47.576;7.524;2022-09-09T07:14:18;25.30;63.30
67817;DHT22;54614;47.576;7.524;2022-09-09T07:16:45;25.30;63.10
67817;DHT22;54614;47.576;7.524;2022-09-09T07:19:13;25.30;63.00
67817;DHT22;54614;47.576;7.524;2022-09-09T07:21:40;25.40;63.00
67817;DHT22;54614;47.576;7.524;2022-09-09T07:24:06;25.40;62.90
67817;DHT22;54614;47.576;7.524;2022-09-09T07:26:37;25.50;63.20
67817;DHT22;54614;47.576;7.524;2022-09-09T07:29:05;25.50;63.40
67817;DHT22;54614;47.576;7.524;2022-09-09T07:31:34;25.50;63.40
67817;DHT22;54614;47.576;7.524;2022-09-09T07:34:02;25.50;63.20
67817;DHT22;54614;47.576;7.524;2022-09-09T07:36:34;25.50;63.20
67817;DHT22;54614;47.576;7.524;2022-09-09T07:39:13;25.60;63.20
67817;DHT22;54614;47.576;7.524;2022-09-09T07:41:45;25.60;63.30
67817;DHT22;54614;47.576;7.524;2022-09-09T07:44:21;25.60;63.30
67817;DHT22;54614;47.576;7.524;2022-09-09T07:46:50;25.60;63.30
67817;DHT22;54614;47.576;7.524;2022-09-09T07:49:16;25.70;63.40
67817;DHT22;54614;47.576;7.524;2022-09-09T07:51:45;25.70;63.30
67817;DHT22;54614;47.576;7.524;2022-09-09T07:54:15;25.60;63.60
67817;DHT22;54614;47.576;7.524;2022-09-09T07:56:42;25.70;63.70
67817;DHT22;54614;47.576;7.524;2022-09-09T07:59:09;25.80;63.20
67817;DHT22;54614;47.576;7.524;2022-09-09T08:01:38;25.80;63.20
67817;DHT22;54614;47.576;7.524;2022-09-09T08:04:08;25.80;63.50
67817;DHT22;54614;47.576;7.524;2022-09-09T08:06:43;25.90;63.50
67817;DHT22;54614;47.576;7.524;2022-09-09T08:09:12;25.90;63.50
67817;DHT22;54614;47.576;7.524;2022-09-09T08:11:39;25.90;63.60
67817;DHT22;54614;47.576;7.524;2022-09-09T08:14:06;25.90;63.80
67817;DHT22;54614;47.576;7.524;2022-09-09T08:16:36;25.90;63.80
67817;DHT22;54614;47.576;7.524;2022-09-09T08:19:05;25.90;63.60
67817;DHT22;54614;47.576;7.524;2022-09-09T08:21:33;25.80;63.90
67817;DHT22;54614;47.576;7.524;2022-09-09T08:24:02;25.80;64.00
67817;DHT22;54614;47.576;7.524;2022-09-09T08:26:33;25.90;64.10
67817;DHT22;54614;47.576;7.524;2022-09-09T08:29:02;25.80;64.10
67817;DHT22;54614;47.576;7.524;2022-09-09T08:31:32;25.90;64.30
67817;DHT22;54614;47.576;7.524;2022-09-09T08:34:00;25.80;64.20
67817;DHT22;54614;47.576;7.524;2022-09-09T08:36:30;25.90;64.30
67817;DHT22;54614;47.576;7.524;2022-09-09T08:39:03;25.90;64.30
67817;DHT22;54614;47.576;7.524;2022-09-09T08:53:14;26.10;63.70
67817;DHT22;54614;47.576;7.524;2022-09-09T08:55:59;26.10;63.80
67817;DHT22;54614;47.576;7.524;2022-09-09T08:58:31;26.10;63.80
67817;DHT22;54614;47.576;7.524;2022-09-09T09:12:21;26.30;63.50
67817;DHT22;54614;47.576;7.524;2022-09-09T09:14:49;26.30;63.50
67817;DHT22;54614;47.576;7.524;2022-09-09T09:17:20;26.30;63.50
67817;DHT22;54614;47.576;7.524;2022-09-09T09:19:49;26.30;63.60
67817;DHT22;54614;47.576;7.524;2022-09-09T09:30:25;26.30;63.80
67817;DHT22;54614;47.576;7.524;2022-09-09T09:33:43;26.30;63.80
67817;DHT22;54614;47.576;7.524;2022-09-09T09:35:55;26.40;63.60
67817;DHT22;54614;47.576;7.524;2022-09-09T09:38:23;26.50;63.20
67817;DHT22;54614;47.576;7.524;2022-09-09T09:40:58;26.50;63.10
67817;DHT22;54614;47.576;7.524;2022-09-09T09:43:30;26.40;63.40
67817;DHT22;54614;47.576;7.524;2022-09-09T09:45:59;26.40;63.50
67817;DHT22;54614;47.576;7.524;2022-09-09T09:48:27;26.30;63.40
67817;DHT22;54614;47.576;7.524;2022-09-09T09:51:02;26.40;63.50
67817;DHT22;54614;47.576;7.524;2022-09-09T09:53:38;26.30;63.70
67817;DHT22;54614;47.576;7.524;2022-09-09T09:56:06;26.40;63.80
67817;DHT22;54614;47.576;7.524;2022-09-09T09:58:53;26.40;63.80
67817;DHT22;54614;47.576;7.524;2022-09-09T10:01:31;26.40;63.80
67817;DHT22;54614;47.576;7.524;2022-09-09T10:04:13;26.40;63.50
67817;DHT22;54614;47.576;7.524;2022-09-09T10:06:39;26.50;63.30
67817;DHT22;54614;47.576;7.524;2022-09-09T10:09:38;26.40;63.30
67817;DHT22;54614;47.576;7.524;2022-09-09T10:24:10;26.60;63.60
67817;DHT22;54614;47.576;7.524;2022-09-09T10:26:51;26.50;63.40
67817;DHT22;54614;47.576;7.524;2022-09-09T10:29:38;26.60;63.40
67817;DHT22;54614;47.576;7.524;2022-09-09T10:35:24;26.70;62.80
67817;DHT22;54614;47.576;7.524;2022-09-09T10:52:54;26.90;62.50
67817;DHT22;54614;47.576;7.524;2022-09-09T10:55:45;26.80;62.30
67817;DHT22;54614;47.576;7.524;2022-09-09T10:58:49;26.80;63.20
67817;DHT22;54614;47.576;7.524;2022-09-09T11:01:32;26.90;61.90
67817;DHT22;54614;47.576;7.524;2022-09-09T11:04:27;26.90;61.80
67817;DHT22;54614;47.576;7.524;2022-09-09T11:07:02;26.80;61.90
67817;DHT22;54614;47.576;7.524;2022-09-09T11:09:37;26.80;61.90
67817;DHT22;54614;47.576;7.524;2022-09-09T11:12:15;26.80;61.90
67817;DHT22;54614;47.576;7.524;2022-09-09T11:17:59;26.90;61.90
67817;DHT22;54614;47.576;7.524;2022-09-09T11:20:29;26.90;61.50
67817;DHT22;54614;47.576;7.524;2022-09-09T11:23:24;27.00;61.20
67817;DHT22;54614;47.576;7.524;2022-09-09T11:26:01;27.00;61.30
67817;DHT22;54614;47.576;7.524;2022-09-09T11:31:49;26.90;61.00
67817;DHT22;54614;47.576;7.524;2022-09-09T11:34:27;26.90;61.30
67817;DHT22;54614;47.576;7.524;2022-09-09T11:42:21;26.90;61.60
67817;DHT22;54614;47.576;7.524;2022-09-09T11:44:49;26.80;61.50
67817;DHT22;54614;47.576;7.524;2022-09-09T11:47:26;26.90;61.60
67817;DHT22;54614;47.576;7.524;2022-09-09T11:52:43;26.90;61.40
67817;DHT22;54614;47.576;7.524;2022-09-09T11:55:29;26.80;61.20
67817;DHT22;54614;47.576;7.524;2022-09-09T11:58:14;26.80;61.30
67817;DHT22;54614;47.576;7.524;2022-09-09T12:00:49;26.80;61.30
67817;DHT22;54614;47.576;7.524;2022-09-09T12:06:25;26.80;61.50
67817;DHT22;54614;47.576;7.524;2022-09-09T12:09:13;26.80;61.70
67817;DHT22;54614;47.576;7.524;2022-09-09T12:11:46;26.80;61.60
67817;DHT22;54614;47.576;7.524;2022-09-09T12:17:28;26.80;61.50
67817;DHT22;54614;47.576;7.524;2022-09-09T12:28:39;26.80;61.50
67817;DHT22;54614;47.576;7.524;2022-09-09T12:34:14;26.70;61.30
67817;DHT22;54614;47.576;7.524;2022-09-09T12:36:46;26.70;61.30
67817;DHT22;54614;47.576;7.524;2022-09-09T12:39:34;26.80;61.50
67817;DHT22;54614;47.576;7.524;2022-09-09T12:42:03;26.70;61.40
67817;DHT22;54614;47.576;7.524;2022-09-09T12:44:30;26.70;61.30
67817;DHT22;54614;47.576;7.524;2022-09-09T12:47:00;26.70;61.10
67817;DHT22;54614;47.576;7.524;2022-09-09T12:49:34;26.70;61.10
67817;DHT22;54614;47.576;7.524;2022-09-09T12:52:21;26.70;61.00
67817;DHT22;54614;47.576;7.524;2022-09-09T12:54:52;26.70;61.20
67817;DHT22;54614;47.576;7.524;2022-09-09T12:57:20;26.70;61.10
67817;DHT22;54614;47.576;7.524;2022-09-09T12:59:51;26.60;61.20
67817;DHT22;54614;47.576;7.524;2022-09-09T13:02:24;26.60;61.20
67817;DHT22;54614;47.576;7.524;2022-09-09T13:04:52;26.60;61.20
67817;DHT22;54614;47.576;7.524;2022-09-09T13:07:20;26.60;61.10
67817;DHT22;54614;47.576;7.524;2022-09-09T13:09:47;26.60;60.50
67817;DHT22;54614;47.576;7.524;2022-09-09T13:12:18;26.60;59.90
67817;DHT22;54614;47.576;7.524;2022-09-09T13:14:54;26.60;59.60
67817;DHT22;54614;47.576;7.524;2022-09-09T13:17:24;26.60;59.70
67817;DHT22;54614;47.576;7.524;2022-09-09T13:19:54;26.70;60.10
67817;DHT22;54614;47.576;7.524;2022-09-09T13:22:37;26.70;60.10
67817;DHT22;54614;47.576;7.524;2022-09-09T13:25:27;26.60;60.20
67817;DHT22;54614;47.576;7.524;2022-09-09T13:28:01;26.70;60.40
67817;DHT22;54614;47.576;7.524;2022-09-09T13:30:36;26.60;60.50
67817;DHT22;54614;47.576;7.524;2022-09-09T13:35:59;26.60;60.50
67817;DHT22;54614;47.576;7.524;2022-09-09T13:38:40;26.60;60.50
67817;DHT22;54614;47.576;7.524;2022-09-09T13:41:28;26.60;60.70
67817;DHT22;54614;47.576;7.524;2022-09-09T13:44:25;26.60;60.40
67817;DHT22;54614;47.576;7.524;2022-09-09T13:49:39;26.60;60.60
67817;DHT22;54614;47.576;7.524;2022-09-09T13:52:16;26.60;60.70
67817;DHT22;54614;47.576;7.524;2022-09-09T13:54:53;26.60;60.70
67817;DHT22;54614;47.576;7.524;2022-09-09T13:57:24;26.60;60.80
67817;DHT22;54614;47.576;7.524;2022-09-09T13:59:52;26.60;60.90
67817;DHT22;54614;47.576;7.524;2022-09-09T14:02:20;26.60;60.90
67817;DHT22;54614;47.576;7.524;2022-09-09T14:04:48;26.60;61.00
67817;DHT22;54614;47.576;7.524;2022-09-09T14:07:17;26.60;60.90
67817;DHT22;54614;47.576;7.524;2022-09-09T14:09:44;26.50;60.80
67817;DHT22;54614;47.576;7.524;2022-09-09T14:12:15;26.50;60.30
67817;DHT22;54614;47.576;7.524;2022-09-09T14:14:42;26.50;60.00
67817;DHT22;54614;47.576;7.524;2022-09-09T14:17:09;26.50;59.80
67817;DHT22;54614;47.576;7.524;2022-09-09T14:19:35;26.50;59.90
67817;DHT22;54614;47.576;7.524;2022-09-09T14:22:02;26.50;59.70
67817;DHT22;54614;47.576;7.524;2022-09-09T14:24:28;26.40;59.50
67817;DHT22;54614;47.576;7.524;2022-09-09T14:26:54;26.40;59.30
67817;DHT22;54614;47.576;7.524;2022-09-09T14:29:20;26.40;59.30
67817;DHT22;54614;47.576;7.524;2022-09-09T14:31:46;26.40;59.10
67817;DHT22;54614;47.576;7.524;2022-09-09T14:34:13;26.40;59.70
67817;DHT22;54614;47.576;7.524;2022-09-09T14:36:40;26.40;58.80
67817;DHT22;54614;47.576;7.524;2022-09-09T14:39:07;26.40;58.80
67817;DHT22;54614;47.576;7.524;2022-09-09T14:41:33;26.40;58.80
67817;DHT22;54614;47.576;7.524;2022-09-09T14:43:59;26.40;59.30
67817;DHT22;54614;47.576;7.524;2022-09-09T14:46:25;26.40;59.20
67817;DHT22;54614;47.576;7.524;2022-09-09T14:48:52;26.40;59.00
67817;DHT22;54614;47.576;7.524;2022-09-09T14:51:21;26.40;59.10
67817;DHT22;54614;47.576;7.524;2022-09-09T14:53:51;26.30;58.70
67817;DHT22;54614;47.576;7.524;2022-09-09T14:56:21;26.40;58.20
67817;DHT22;54614;47.576;7.524;2022-09-09T14:58:50;26.40;58.50
67817;DHT22;54614;47.576;7.524;2022-09-09T15:01:19;26.40;58.50
67817;DHT22;54614;47.576;7.524;2022-09-09T15:03:56;26.30;58.00
67817;DHT22;54614;47.576;7.524;2022-09-09T15:06:29;26.30;57.90
67817;DHT22;54614;47.576;7.524;2022-09-09T15:08:59;26.30;57.70
67817;DHT22;54614;47.576;7.524;2022-09-09T15:11:30;26.30;58.40
67817;DHT22;54614;47.576;7.524;2022-09-09T15:14:03;26.40;58.50
67817;DHT22;54614;47.576;7.524;2022-09-09T15:16:30;26.40;58.80
67817;DHT22;54614;47.576;7.524;2022-09-09T15:18:59;26.40;58.80
67817;DHT22;54614;47.576;7.524;2022-09-09T15:21:32;26.40;59.00
67817;DHT22;54614;47.576;7.524;2022-09-09T15:23:59;26.40;59.00
67817;DHT22;54614;47.576;7.524;2022-09-09T15:26:26;26.40;59.10
67817;DHT22;54614;47.576;7.524;2022-09-09T15:28:53;26.40;59.00
67817;DHT22;54614;47.576;7.524;2022-09-09T15:31:22;26.40;58.70
67817;DHT22;54614;47.576;7.524;2022-09-09T15:33:56;26.40;59.00
67817;DHT22;54614;47.576;7.524;2022-09-09T15:36:37;26.40;59.10
67817;DHT22;54614;47.576;7.524;2022-09-09T15:39:07;26.30;59.00
67817;DHT22;54614;47.576;7.524;2022-09-09T15:41:38;26.40;59.20
67817;DHT22;54614;47.576;7.524;2022-09-09T15:44:05;26.40;59.00
67817;DHT22;54614;47.576;7.524;2022-09-09T15:46:39;26.30;59.60
67817;DHT22;54614;47.576;7.524;2022-09-09T15:49:13;26.20;59.50
67817;DHT22;54614;47.576;7.524;2022-09-09T15:51:42;26.10;59.70
67817;DHT22;54614;47.576;7.524;2022-09-09T15:54:14;26.10;59.90
67817;DHT22;54614;47.576;7.524;2022-09-09T15:56:46;26.00;60.00
67817;DHT22;54614;47.576;7.524;2022-09-09T15:59:16;26.10;59.70
67817;DHT22;54614;47.576;7.524;2022-09-09T16:01:42;26.10;58.90
67817;DHT22;54614;47.576;7.524;2022-09-09T16:04:09;26.10;58.50
67817;DHT22;54614;47.576;7.524;2022-09-09T16:06:36;26.10;58.40
67817;DHT22;54614;47.576;7.524;2022-09-09T16:09:04;26.10;58.30
67817;DHT22;54614;47.576;7.524;2022-09-09T16:11:34;26.10;58.10
67817;DHT22;54614;47.576;7.524;2022-09-09T16:14:02;26.10;58.60
67817;DHT22;54614;47.576;7.524;2022-09-09T16:16:29;26.10;57.70
67817;DHT22;54614;47.576;7.524;2022-09-09T16:18:57;26.00;57.40
67817;DHT22;54614;47.576;7.524;2022-09-09T16:21:28;26.00;57.50
67817;DHT22;54614;47.576;7.524;2022-09-09T16:23:56;26.00;57.30
67817;DHT22;54614;47.576;7.524;2022-09-09T16:26:31;25.90;57.30
67817;DHT22;54614;47.576;7.524;2022-09-09T16:28:59;25.90;57.30
67817;DHT22;54614;47.576;7.524;2022-09-09T16:31:27;26.00;57.60
67817;DHT22;54614;47.576;7.524;2022-09-09T16:33:55;26.00;57.40
67817;DHT22;54614;47.576;7.524;2022-09-09T16:36:23;26.10;57.90
67817;DHT22;54614;47.576;7.524;2022-09-09T16:38:55;26.10;57.80
67817;DHT22;54614;47.576;7.524;2022-09-09T16:41:23;26.20;57.80
67817;DHT22;54614;47.576;7.524;2022-09-09T16:44:00;26.20;58.00
67817;DHT22;54614;47.576;7.524;2022-09-09T16:46:29;26.20;57.90
67817;DHT22;54614;47.576;7.524;2022-09-09T16:48:57;26.20;57.90
67817;DHT22;54614;47.576;7.524;2022-09-09T16:51:29;26.20;58.00
67817;DHT22;54614;47.576;7.524;2022-09-09T16:54:01;26.10;57.60
67817;DHT22;54614;47.576;7.524;2022-09-09T16:56:30;26.20;58.20
67817;DHT22;54614;47.576;7.524;2022-09-09T16:59:04;26.20;58.30
67817;DHT22;54614;47.576;7.524;2022-09-09T17:01:35;26.10;58.20
67817;DHT22;54614;47.576;7.524;2022-09-09T17:04:05;26.10;58.30
67817;DHT22;54614;47.576;7.524;2022-09-09T17:06:33;26.10;58.40
67817;DHT22;54614;47.576;7.524;2022-09-09T17:09:05;26.20;58.40
67817;DHT22;54614;47.576;7.524;2022-09-09T17:11:35;26.10;58.50
67817;DHT22;54614;47.576;7.524;2022-09-09T17:14:02;26.20;58.40
67817;DHT22;54614;47.576;7.524;2022-09-09T17:16:30;26.20;58.40
67817;DHT22;54614;47.576;7.524;2022-09-09T17:18:59;26.20;58.30
67817;DHT22;54614;47.576;7.524;2022-09-09T17:21:27;26.20;58.30
67817;DHT22;54614;47.576;7.524;2022-09-09T17:23:54;26.20;58.40
67817;DHT22;54614;47.576;7.524;2022-09-09T17:26:25;26.20;58.50
67817;DHT22;54614;47.576;7.524;2022-09-09T17:28:54;26.10;59.10
67817;DHT22;54614;47.576;7.524;2022-09-09T17:31:24;26.20;58.70
67817;DHT22;54614;47.576;7.524;2022-09-09T17:33:51;26.20;58.90
67817;DHT22;54614;47.576;7.524;2022-09-09T17:36:21;26.10;58.70
67817;DHT22;54614;47.576;7.524;2022-09-09T17:38:54;26.10;58.90
67817;DHT22;54614;47.576;7.524;2022-09-09T17:41:25;26.10;58.90
67817;DHT22;54614;47.576;7.524;2022-09-09T17:43:56;26.10;58.90
67817;DHT22;54614;47.576;7.524;2022-09-09T17:46:26;26.10;58.90
67817;DHT22;54614;47.576;7.524;2022-09-09T17:48:59;26.10;58.90
67817;DHT22;54614;47.576;7.524;2022-09-09T17:51:28;26.10;59.00
67817;DHT22;54614;47.576;7.524;2022-09-09T17:54:01;26.10;58.90
67817;DHT22;54614;47.576;7.524;2022-09-09T17:56:36;26.10;59.20
67817;DHT22;54614;47.576;7.524;2022-09-09T17:59:05;26.10;59.20
67817;DHT22;54614;47.576;7.524;2022-09-09T18:01:34;26.10;59.10
67817;DHT22;54614;47.576;7.524;2022-09-09T18:04:05;26.10;59.20
67817;DHT22;54614;47.576;7.524;2022-09-09T18:06:37;26.10;59.00
67817;DHT22;54614;47.576;7.524;2022-09-09T18:09:13;26.10;58.90
67817;DHT22;54614;47.576;7.524;2022-09-09T18:11:44;26.10;59.10
67817;DHT22;54614;47.576;7.524;2022-09-09T18:14:14;26.00;58.90
67817;DHT22;54614;47.576;7.524;2022-09-09T18:16:45;26.10;59.10
67817;DHT22;54614;47.576;7.524;2022-09-09T18:19:14;26.10;59.20
67817;DHT22;54614;47.576;7.524;2022-09-09T18:21:43;26.10;59.00
67817;DHT22;54614;47.576;7.524;2022-09-09T18:24:11;26.10;59.20
67817;DHT22;54614;47.576;7.524;2022-09-09T18:26:39;26.10;59.20
67817;DHT22;54614;47.576;7.524;2022-09-09T18:29:09;26.10;58.90
67817;DHT22;54614;47.576;7.524;2022-09-09T18:31:37;26.10;59.70
67817;DHT22;54614;47.576;7.524;2022-09-09T18:34:06;26.10;59.30
67817;DHT22;54614;47.576;7.524;2022-09-09T18:36:39;26.10;58.90